createdAt,value
2022-11-08T00:00:23.855Z,93.57
2022-11-08T00:01:23.900Z,94.23
2022-11-08T00:02:23.889Z,94.07
2022-11-08T00:03:23.881Z,94.93
2022-11-08T00:04:23.782Z,96.83
2022-11-08T00:05:23.792Z,97.24
2022-11-08T00:06:23.844Z,97.28
2022-11-08T00:07:23.779Z,97.39
2022-11-08T00:08:23.755Z,98.46
2022-11-08T00:09:23.732Z,98.46
2022-11-08T00:10:23.788Z,99.23
2022-11-08T00:11:23.734Z,99.74
2022-11-08T00:12:23.721Z,99.99
2022-11-08T00:13:23.695Z,99.99
2022-11-08T00:14:23.682Z,99.99
2022-11-08T00:15:23.666Z,99.99
2022-11-08T00:16:23.714Z,99.99
2022-11-08T00:17:23.657Z,99.99
2022-11-08T00:18:23.705Z,99.99
2022-11-08T00:19:23.705Z,99.99
2022-11-08T00:20:23.806Z,99.99
2022-11-08T00:21:23.730Z,99.99
2022-11-08T00:22:23.605Z,99.99
2022-11-08T00:23:23.611Z,99.99
2022-11-08T00:24:23.568Z,99.99
2022-11-08T00:25:23.617Z,99.99
2022-11-08T00:26:23.573Z,99.99
2022-11-08T00:27:23.553Z,99.99
2022-11-08T00:28:23.549Z,99.99
2022-11-08T00:29:23.593Z,99.99
2022-11-08T00:30:23.508Z,99.99
2022-11-08T00:31:23.561Z,99.99
2022-11-08T00:32:23.491Z,99.99
2022-11-08T00:33:23.518Z,99.99
2022-11-08T00:34:23.473Z,99.99
2022-11-08T00:35:23.546Z,99.99
2022-11-08T00:36:23.544Z,99.99
2022-11-08T00:37:23.487Z,99.99
2022-11-08T00:38:23.439Z,99.99
2022-11-08T00:39:23.430Z,99.99
2022-11-08T00:40:23.432Z,99.99
2022-11-08T00:41:23.480Z,99.99
2022-11-08T00:42:23.405Z,99.99
2022-11-08T00:43:23.394Z,99.99
2022-11-08T00:44:23.385Z,99.99
2022-11-08T00:45:23.357Z,99.99
2022-11-08T00:46:23.358Z,99.99
2022-11-08T00:47:23.356Z,99.99
2022-11-08T00:48:23.317Z,99.99
2022-11-08T00:49:23.303Z,99.99
2022-11-08T00:50:23.351Z,99.99
2022-11-08T00:51:23.374Z,99.99
2022-11-08T00:52:23.269Z,99.99
2022-11-08T00:53:23.322Z,99.99
2022-11-08T00:54:23.261Z,99.99
2022-11-08T00:55:23.281Z,99.99
2022-11-08T00:56:23.269Z,99.99
2022-11-08T00:57:35.947Z,99.99
2022-11-08T00:58:27.487Z,99.99
2022-11-08T00:59:23.318Z,99.99
2022-11-08T01:00:23.212Z,99.99
2022-11-08T01:01:23.306Z,99.99
2022-11-08T01:02:23.227Z,99.99
2022-11-08T01:03:23.270Z,99.99
2022-11-08T01:04:23.146Z,99.99
2022-11-08T01:05:23.139Z,99.99
2022-11-08T01:06:23.157Z,99.99
2022-11-08T01:07:23.131Z,99.99
2022-11-08T01:08:23.135Z,99.99
2022-11-08T01:09:23.109Z,99.99
2022-11-08T01:10:23.096Z,99.99
2022-11-08T01:11:23.136Z,99.99
2022-11-08T01:12:23.103Z,99.99
2022-11-08T01:13:23.072Z,99.99
2022-11-08T01:14:23.114Z,99.99
2022-11-08T01:15:23.088Z,99.99
2022-11-08T01:16:23.101Z,99.99
2022-11-08T01:17:23.009Z,99.99
2022-11-08T01:18:23.010Z,99.99
2022-11-08T01:19:23.507Z,99.99
2022-11-08T01:20:23.010Z,99.99
2022-11-08T01:21:23.051Z,99.99
2022-11-08T01:22:23.039Z,99.99
2022-11-08T01:23:23.059Z,99.99
2022-11-08T01:24:22.938Z,99.99
2022-11-08T01:25:22.929Z,99.99
2022-11-08T01:26:22.987Z,99.99
2022-11-08T01:27:22.913Z,99.99
2022-11-08T01:28:22.921Z,99.99
2022-11-08T01:29:22.907Z,99.99
2022-11-08T01:30:22.889Z,99.99
2022-11-08T01:31:22.883Z,99.99
2022-11-08T01:32:22.911Z,99.99
2022-11-08T01:33:22.849Z,99.99
2022-11-08T01:34:22.936Z,99.99
2022-11-08T01:35:22.870Z,99.99
2022-11-08T01:36:22.879Z,99.99
2022-11-08T01:37:22.875Z,99.99
2022-11-08T01:38:22.835Z,99.99
2022-11-08T01:39:22.851Z,99.99
2022-11-08T01:40:22.799Z,99.99
2022-11-08T01:41:22.793Z,99.99
2022-11-08T01:42:22.769Z,99.99
2022-11-08T01:43:22.815Z,99.99
2022-11-08T01:44:22.717Z,99.99
2022-11-08T01:45:22.705Z,99.99
2022-11-08T01:46:22.745Z,99.99
2022-11-08T01:47:22.682Z,99.99
2022-11-08T01:48:22.725Z,99.99
2022-11-08T01:49:22.687Z,99.99
2022-11-08T01:50:22.704Z,99.99
2022-11-08T01:51:22.678Z,99.99
2022-11-08T01:52:22.629Z,99.99
2022-11-08T01:53:22.689Z,99.99
2022-11-08T01:54:22.647Z,99.99
2022-11-08T01:55:22.672Z,99.99
2022-11-08T01:56:22.609Z,99.99
2022-11-08T01:57:22.611Z,99.99
2022-11-08T01:58:22.662Z,99.99
2022-11-08T01:59:22.608Z,99.99
2022-11-08T02:00:22.585Z,99.99
2022-11-08T02:01:22.659Z,99.99
2022-11-08T02:02:22.591Z,99.99
2022-11-08T02:03:22.605Z,99.99
2022-11-08T02:04:22.591Z,99.99
2022-11-08T02:05:22.523Z,99.99
2022-11-08T02:06:22.492Z,99.99
2022-11-08T02:07:22.491Z,99.99
2022-11-08T02:08:22.506Z,99.99
2022-11-08T02:09:22.470Z,99.99
2022-11-08T02:10:22.812Z,99.99
2022-11-08T02:11:22.966Z,99.99
2022-11-08T02:12:22.708Z,99.99
2022-11-08T02:13:22.406Z,99.99
2022-11-08T02:14:22.403Z,99.99
2022-11-08T02:15:22.406Z,99.99
2022-11-08T02:16:22.412Z,99.99
2022-11-08T02:17:22.406Z,99.99
2022-11-08T02:18:22.370Z,99.99
2022-11-08T02:19:22.358Z,99.99
2022-11-08T02:20:22.336Z,99.99
2022-11-08T02:21:22.404Z,99.99
2022-11-08T02:22:22.822Z,99.99
2022-11-08T02:23:22.326Z,99.99
2022-11-08T02:24:22.286Z,99.99
2022-11-08T02:25:22.282Z,99.99
2022-11-08T02:26:22.270Z,99.99
2022-11-08T02:27:22.318Z,99.99
2022-11-08T02:28:22.252Z,99.99
2022-11-08T02:29:22.432Z,99.99
2022-11-08T02:30:22.245Z,99.99
2022-11-08T02:31:22.251Z,99.99
2022-11-08T02:32:22.217Z,99.99
2022-11-08T02:33:22.247Z,99.99
2022-11-08T02:34:22.238Z,99.99
2022-11-08T02:35:22.220Z,99.99
2022-11-08T02:36:22.234Z,99.99
2022-11-08T02:37:22.167Z,99.99
2022-11-08T02:38:22.194Z,99.99
2022-11-08T02:39:22.175Z,99.99
2022-11-08T02:40:22.128Z,99.99
2022-11-08T02:41:22.170Z,99.99
2022-11-08T02:42:22.148Z,99.99
2022-11-08T02:43:22.095Z,99.99
2022-11-08T02:44:22.084Z,99.99
2022-11-08T02:45:22.278Z,99.99
2022-11-08T02:46:22.109Z,99.99
2022-11-08T02:47:22.090Z,99.99
2022-11-08T02:48:22.085Z,99.99
2022-11-08T02:49:22.073Z,99.99
2022-11-08T02:50:22.045Z,99.99
2022-11-08T02:51:22.042Z,99.99
2022-11-08T02:52:22.053Z,99.99
2022-11-08T02:53:22.017Z,99.99
2022-11-08T02:54:22.075Z,99.99
2022-11-08T02:55:22.024Z,99.99
2022-11-08T02:56:22.015Z,99.99
2022-11-08T02:57:22.008Z,99.99
2022-11-08T02:58:21.994Z,99.99
2022-11-08T02:59:21.960Z,99.99
2022-11-08T03:00:21.942Z,99.99
2022-11-08T03:01:21.988Z,99.99
2022-11-08T03:02:22.119Z,99.99
2022-11-08T03:03:21.902Z,99.99
2022-11-08T03:04:21.932Z,99.99
2022-11-08T03:05:21.931Z,99.99
2022-11-08T03:06:21.849Z,99.99
2022-11-08T03:07:24.864Z,99.99
2022-11-08T03:08:22.098Z,99.99
2022-11-08T03:09:21.853Z,99.99
2022-11-08T03:10:21.823Z,99.99
2022-11-08T03:11:21.813Z,99.99
2022-11-08T03:12:21.800Z,99.99
2022-11-08T03:13:21.813Z,99.99
2022-11-08T03:14:21.813Z,99.99
2022-11-08T03:15:21.838Z,99.99
2022-11-08T03:16:21.882Z,99.99
2022-11-08T03:17:21.735Z,99.99
2022-11-08T03:18:21.745Z,99.99
2022-11-08T03:19:21.728Z,99.99
2022-11-08T03:20:21.699Z,99.99
2022-11-08T03:21:21.756Z,99.99
2022-11-08T03:22:21.687Z,99.99
2022-11-08T03:23:21.778Z,99.99
2022-11-08T03:24:21.668Z,99.99
2022-11-08T03:25:21.696Z,99.99
2022-11-08T03:26:21.714Z,99.99
2022-11-08T03:27:21.697Z,99.99
2022-11-08T03:28:23.035Z,99.99
2022-11-08T03:29:21.687Z,99.99
2022-11-08T03:30:21.744Z,99.99
2022-11-08T03:31:21.596Z,99.99
2022-11-08T03:32:21.572Z,99.99
2022-11-08T03:33:21.575Z,99.99
2022-11-08T03:34:21.593Z,99.99
2022-11-08T03:35:21.609Z,99.99
2022-11-08T03:36:21.617Z,99.99
2022-11-08T03:37:21.532Z,99.99
2022-11-08T03:38:21.547Z,99.99
2022-11-08T03:39:21.583Z,99.99
2022-11-08T03:40:21.549Z,99.99
2022-11-08T03:41:21.494Z,99.99
2022-11-08T03:42:21.497Z,99.99
2022-11-08T03:43:21.495Z,99.99
2022-11-08T03:44:21.453Z,99.99
2022-11-08T03:45:21.445Z,99.99
2022-11-08T03:46:21.456Z,99.99
2022-11-08T03:47:21.441Z,99.99
2022-11-08T03:48:21.678Z,99.99
2022-11-08T03:49:21.415Z,99.99
2022-11-08T03:50:21.409Z,99.99
2022-11-08T03:51:21.405Z,99.99
2022-11-08T03:52:21.373Z,99.99
2022-11-08T03:53:21.479Z,99.99
2022-11-08T03:54:21.399Z,99.99
2022-11-08T03:55:21.339Z,99.99
2022-11-08T03:56:21.422Z,99.99
2022-11-08T03:57:21.314Z,99.99
2022-11-08T03:58:21.572Z,99.99
2022-11-08T03:59:21.320Z,99.99
2022-11-08T04:00:21.298Z,99.99
2022-11-08T04:01:21.557Z,99.99
2022-11-08T04:02:21.350Z,99.99
2022-11-08T04:03:21.296Z,99.99
2022-11-08T04:04:21.259Z,99.99
2022-11-08T04:05:21.263Z,99.99
2022-11-08T04:06:21.435Z,99.99
2022-11-08T04:07:21.276Z,99.99
2022-11-08T04:08:21.397Z,99.99
2022-11-08T04:09:21.790Z,99.99
2022-11-08T04:10:21.205Z,99.99
2022-11-08T04:11:21.250Z,99.99
2022-11-08T04:12:21.182Z,99.99
2022-11-08T04:13:21.179Z,99.99
2022-11-08T04:14:21.158Z,99.99
2022-11-08T04:15:21.146Z,99.99
2022-11-08T04:16:21.212Z,99.99
2022-11-08T04:17:21.215Z,99.99
2022-11-08T04:18:21.487Z,99.99
2022-11-08T04:19:21.193Z,99.99
2022-11-08T04:20:21.146Z,99.99
2022-11-08T04:21:21.141Z,99.99
2022-11-08T04:22:21.067Z,99.99
2022-11-08T04:23:21.070Z,99.99
2022-11-08T04:24:21.049Z,99.99
2022-11-08T04:25:21.025Z,99.99
2022-11-08T04:26:21.039Z,99.99
2022-11-08T04:27:21.023Z,99.99
2022-11-08T04:28:21.154Z,99.99
2022-11-08T04:29:20.971Z,99.99
2022-11-08T04:30:20.972Z,99.99
2022-11-08T04:31:21.028Z,99.99
2022-11-08T04:32:20.994Z,99.99
2022-11-08T04:33:20.937Z,99.99
2022-11-08T04:34:21.066Z,99.99
2022-11-08T04:35:20.960Z,99.99
2022-11-08T04:36:20.951Z,99.99
2022-11-08T04:37:20.890Z,99.99
2022-11-08T04:38:21.216Z,99.99
2022-11-08T04:39:20.959Z,99.99
2022-11-08T04:40:20.884Z,99.99
2022-11-08T04:41:20.904Z,99.99
2022-11-08T04:42:20.861Z,99.99
2022-11-08T04:43:20.825Z,99.99
2022-11-08T04:44:20.813Z,99.99
2022-11-08T04:45:20.823Z,99.99
2022-11-08T04:46:20.862Z,99.99
2022-11-08T04:47:20.819Z,99.99
2022-11-08T04:48:21.040Z,99.99
2022-11-08T04:49:20.827Z,99.99
2022-11-08T04:50:20.762Z,99.99
2022-11-08T04:51:20.764Z,99.99
2022-11-08T04:52:20.773Z,99.99
2022-11-08T04:53:20.733Z,99.99
2022-11-08T04:54:20.707Z,99.99
2022-11-08T04:55:20.737Z,99.99
2022-11-08T04:56:20.732Z,99.99
2022-11-08T04:57:20.801Z,99.99
2022-11-08T04:58:20.895Z,99.99
2022-11-08T04:59:20.661Z,99.99
2022-11-08T05:00:20.648Z,99.99
2022-11-08T05:01:20.832Z,99.99
2022-11-08T05:02:20.782Z,99.99
2022-11-08T05:03:20.614Z,99.99
2022-11-08T05:04:20.627Z,99.99
2022-11-08T05:05:20.674Z,99.99
2022-11-08T05:06:20.633Z,99.99
2022-11-08T05:07:20.604Z,99.99
2022-11-08T05:08:20.911Z,99.99
2022-11-08T05:09:20.637Z,99.99
2022-11-08T05:10:20.553Z,99.99
2022-11-08T05:11:20.581Z,99.99
2022-11-08T05:12:20.608Z,99.99
2022-11-08T05:13:20.538Z,99.99
2022-11-08T05:14:20.505Z,99.99
2022-11-08T05:15:20.542Z,99.99
2022-11-08T05:16:20.499Z,99.99
2022-11-08T05:17:20.501Z,99.99
2022-11-08T05:18:20.720Z,99.99
2022-11-08T05:19:20.458Z,99.99
2022-11-08T05:20:20.462Z,99.99
2022-11-08T05:21:20.452Z,99.99
2022-11-08T05:22:20.421Z,99.99
2022-11-08T05:23:20.446Z,99.99
2022-11-08T05:24:20.415Z,99.99
2022-11-08T05:25:20.445Z,99.99
2022-11-08T05:26:20.470Z,99.99
2022-11-08T05:27:20.401Z,99.99
2022-11-08T05:28:20.646Z,99.99
2022-11-08T05:29:20.398Z,99.99
2022-11-08T05:30:20.344Z,99.99
2022-11-08T05:31:20.398Z,99.99
2022-11-08T05:32:20.349Z,99.99
2022-11-08T05:33:20.374Z,99.99
2022-11-08T05:34:20.298Z,99.99
2022-11-08T05:35:20.300Z,99.99
2022-11-08T05:36:20.330Z,99.99
2022-11-08T05:37:20.420Z,99.99
2022-11-08T05:38:20.711Z,99.99
2022-11-08T05:39:20.241Z,99.99
2022-11-08T05:40:20.225Z,99.99
2022-11-08T05:41:20.308Z,99.99
2022-11-08T05:42:20.254Z,99.99
2022-11-08T05:43:20.587Z,99.99
2022-11-08T05:44:20.191Z,99.99
2022-11-08T05:45:20.205Z,99.99
2022-11-08T05:46:20.231Z,99.99
2022-11-08T05:47:20.201Z,99.99
2022-11-08T05:48:20.552Z,99.99
2022-11-08T05:49:20.153Z,99.99
2022-11-08T05:50:20.140Z,99.99
2022-11-08T05:51:20.183Z,99.99
2022-11-08T05:52:20.101Z,99.99
2022-11-08T05:53:20.368Z,99.99
2022-11-08T05:54:20.089Z,99.99
2022-11-08T05:55:20.116Z,99.99
2022-11-08T05:56:20.113Z,99.99
2022-11-08T05:57:22.174Z,99.99
2022-11-08T05:58:20.096Z,99.99
2022-11-08T05:59:20.055Z,99.99
2022-11-08T06:00:20.022Z,99.99
2022-11-08T06:01:20.112Z,99.99
2022-11-08T06:02:20.114Z,99.99
2022-11-08T06:03:23.674Z,99.99
2022-11-08T06:04:19.986Z,99.99
2022-11-08T06:05:20.023Z,99.99
2022-11-08T06:06:20.037Z,99.99
2022-11-08T06:07:19.995Z,99.99
2022-11-08T06:08:19.968Z,99.99
2022-11-08T06:09:19.962Z,99.99
2022-11-08T06:10:19.933Z,99.99
2022-11-08T06:11:19.936Z,99.99
2022-11-08T06:12:20.003Z,99.99
2022-11-08T06:13:19.935Z,99.99
2022-11-08T06:14:20.020Z,99.99
2022-11-08T06:15:19.941Z,99.99
2022-11-08T06:16:19.929Z,99.99
2022-11-08T06:17:19.851Z,99.99
2022-11-08T06:18:19.889Z,99.99
2022-11-08T06:19:19.818Z,99.99
2022-11-08T06:20:19.927Z,99.99
2022-11-08T06:21:19.855Z,99.99
2022-11-08T06:22:19.803Z,99.99
2022-11-08T06:23:20.186Z,99.99
2022-11-08T06:24:19.788Z,99.99
2022-11-08T06:25:19.788Z,99.99
2022-11-08T06:26:19.787Z,99.99
2022-11-08T06:27:19.752Z,99.99
2022-11-08T06:28:19.803Z,99.99
2022-11-08T06:29:19.736Z,99.99
2022-11-08T06:30:19.709Z,99.99
2022-11-08T06:31:19.781Z,99.99
2022-11-08T06:32:19.728Z,99.99
2022-11-08T06:33:20.188Z,99.99
2022-11-08T06:34:19.676Z,99.99
2022-11-08T06:35:19.696Z,99.99
2022-11-08T06:36:19.698Z,99.99
2022-11-08T06:37:19.649Z,99.99
2022-11-08T06:38:19.619Z,99.99
2022-11-08T06:39:19.644Z,99.99
2022-11-08T06:40:19.654Z,99.99
2022-11-08T06:41:19.686Z,99.99
2022-11-08T06:42:19.574Z,99.99
2022-11-08T06:43:20.405Z,99.99
2022-11-08T06:44:19.629Z,99.99
2022-11-08T06:45:19.581Z,99.99
2022-11-08T06:46:19.603Z,99.99
2022-11-08T06:47:19.558Z,99.99
2022-11-08T06:48:19.561Z,99.99
2022-11-08T06:49:19.588Z,99.99
2022-11-08T06:50:19.495Z,99.99
2022-11-08T06:51:19.530Z,99.99
2022-11-08T06:52:19.467Z,99.99
2022-11-08T06:53:19.920Z,99.99
2022-11-08T06:54:22.119Z,99.99
2022-11-08T06:55:20.436Z,99.99
2022-11-08T06:56:19.473Z,99.99
2022-11-08T06:57:19.460Z,99.99
2022-11-08T06:58:19.421Z,99.99
2022-11-08T06:59:19.411Z,99.99
2022-11-08T07:00:19.492Z,99.99
2022-11-08T07:01:19.430Z,99.99
2022-11-08T07:02:19.543Z,99.99
2022-11-08T07:03:19.707Z,99.99
2022-11-08T07:04:19.577Z,99.99
2022-11-08T07:05:19.396Z,99.99
2022-11-08T07:06:19.393Z,99.99
2022-11-08T07:07:19.353Z,99.99
2022-11-08T07:08:23.698Z,99.99
2022-11-08T07:09:19.557Z,99.99
2022-11-08T07:10:19.289Z,99.99
2022-11-08T07:11:19.346Z,99.99
2022-11-08T07:12:19.254Z,99.99
2022-11-08T07:13:19.860Z,99.99
2022-11-08T07:14:19.252Z,99.99
2022-11-08T07:15:19.299Z,99.99
2022-11-08T07:16:19.279Z,99.99
2022-11-08T07:17:19.234Z,99.99
2022-11-08T07:18:19.319Z,99.99
2022-11-08T07:19:19.220Z,99.99
2022-11-08T07:20:19.222Z,99.99
2022-11-08T07:21:19.246Z,99.99
2022-11-08T07:22:19.184Z,99.99
2022-11-08T07:23:19.690Z,99.99
2022-11-08T07:24:19.173Z,99.99
2022-11-08T07:25:19.178Z,99.99
2022-11-08T07:26:19.154Z,99.99
2022-11-08T07:27:19.137Z,99.99
2022-11-08T07:28:19.085Z,99.99
2022-11-08T07:29:19.068Z,99.99
2022-11-08T07:30:19.064Z,99.99
2022-11-08T07:31:19.207Z,99.68
2022-11-08T07:32:19.119Z,99.43
2022-11-08T07:33:19.387Z,97.69
2022-11-08T07:34:19.099Z,98.16
2022-11-08T07:35:19.084Z,97.55
2022-11-08T07:36:19.046Z,96.12
2022-11-08T07:37:18.992Z,95.03
2022-11-08T07:38:19.004Z,93.96
2022-11-08T07:39:19.085Z,94.32
2022-11-08T07:40:18.995Z,94.56
2022-11-08T07:41:19.008Z,94.87
2022-11-08T07:42:18.963Z,94.30
2022-11-08T07:43:19.024Z,94.71
2022-11-08T07:44:18.942Z,95.32
2022-11-08T07:45:18.922Z,94.98
2022-11-08T07:46:18.929Z,95.02
2022-11-08T07:47:18.961Z,95.90
2022-11-08T07:48:18.936Z,96.62
2022-11-08T07:49:18.895Z,96.92
2022-11-08T07:50:18.847Z,95.39
2022-11-08T07:51:18.872Z,95.49
2022-11-08T07:52:18.915Z,96.82
2022-11-08T07:53:19.302Z,97.03
2022-11-08T07:54:18.814Z,96.62
2022-11-08T07:55:18.824Z,96.10
2022-11-08T07:56:18.825Z,94.67
2022-11-08T07:57:18.841Z,93.54
2022-11-08T07:58:18.762Z,93.74
2022-11-08T07:59:18.764Z,93.64
2022-11-08T08:00:18.800Z,93.13
2022-11-08T08:01:18.760Z,91.80
2022-11-08T08:02:18.911Z,90.97
2022-11-08T08:03:19.324Z,91.14
2022-11-08T08:04:18.751Z,91.44
2022-11-08T08:05:18.706Z,91.24
2022-11-08T08:06:18.779Z,92.32
2022-11-08T08:07:18.839Z,93.35
2022-11-08T08:08:18.893Z,92.94
2022-11-08T08:09:18.684Z,93.08
2022-11-08T08:10:18.657Z,91.30
2022-11-08T08:11:18.748Z,90.48
2022-11-08T08:12:18.630Z,90.89
2022-11-08T08:13:19.012Z,93.15
2022-11-08T08:14:18.739Z,93.71
2022-11-08T08:15:18.655Z,91.50
2022-11-08T08:16:18.609Z,91.82
2022-11-08T08:17:18.634Z,93.00
2022-11-08T08:18:18.635Z,93.41
2022-11-08T08:19:18.622Z,92.79
2022-11-08T08:20:18.551Z,94.02
2022-11-08T08:21:18.542Z,93.10
2022-11-08T08:22:18.511Z,93.51
2022-11-08T08:23:18.929Z,91.16
2022-11-08T08:24:18.547Z,93.47
2022-11-08T08:25:18.525Z,92.55
2022-11-08T08:26:18.494Z,93.93
2022-11-08T08:27:18.559Z,93.63
2022-11-08T08:28:18.523Z,93.93
2022-11-08T08:29:18.437Z,94.96
2022-11-08T08:30:18.430Z,93.84
2022-11-08T08:31:18.437Z,94.20
2022-11-08T08:32:18.481Z,93.07
2022-11-08T08:33:33.734Z,91.54
2022-11-08T08:34:19.376Z,92.97
2022-11-08T08:35:18.433Z,92.62
2022-11-08T08:36:18.415Z,92.93
2022-11-08T08:37:18.369Z,93.29
2022-11-08T08:38:18.418Z,93.13
2022-11-08T08:39:18.433Z,93.44
2022-11-08T08:40:18.345Z,92.99
2022-11-08T08:41:18.349Z,93.24
2022-11-08T08:42:18.337Z,92.42
2022-11-08T08:43:18.669Z,93.33
2022-11-08T08:44:18.314Z,92.36
2022-11-08T08:45:18.314Z,93.48
2022-11-08T08:46:18.304Z,93.38
2022-11-08T08:47:18.307Z,93.01
2022-11-08T08:48:18.223Z,93.22
2022-11-08T08:49:18.271Z,93.22
2022-11-08T08:50:18.276Z,92.81
2022-11-08T08:51:18.230Z,92.85
2022-11-08T08:52:18.250Z,93.47
2022-11-08T08:53:18.605Z,93.92
2022-11-08T08:54:18.192Z,94.54
2022-11-08T08:55:18.211Z,94.54
2022-11-08T08:56:18.159Z,94.84
2022-11-08T08:57:18.245Z,94.74
2022-11-08T08:58:18.160Z,94.48
2022-11-08T09:02:19.193Z,96.42
2022-11-08T09:03:18.401Z,96.63
2022-11-08T09:04:18.113Z,96.38
2022-11-08T09:05:18.076Z,96.33
2022-11-08T09:06:18.073Z,95.57
2022-11-08T09:07:18.148Z,94.45
2022-11-08T09:08:18.050Z,94.40
2022-11-08T09:09:18.024Z,93.93
2022-11-08T09:10:17.992Z,93.52
2022-11-08T09:11:18.010Z,92.81
2022-11-08T09:12:17.996Z,92.60
2022-11-08T09:13:18.336Z,93.43
2022-11-08T09:14:18.100Z,93.38
2022-11-08T09:15:18.098Z,92.77
2022-11-08T09:16:17.932Z,91.13
2022-11-08T09:17:17.953Z,92.36
2022-11-08T09:18:18.148Z,92.77
2022-11-08T09:19:17.929Z,93.48
2022-11-08T09:20:17.962Z,92.97
2022-11-08T09:21:17.925Z,92.77
2022-11-08T09:22:17.880Z,92.87
2022-11-08T09:23:18.443Z,92.77
2022-11-08T09:24:17.906Z,93.73
2022-11-08T09:25:17.838Z,93.52
2022-11-08T09:26:17.962Z,93.84
2022-11-08T09:27:17.844Z,93.98
2022-11-08T09:28:17.797Z,95.21
2022-11-08T09:29:17.801Z,95.25
2022-11-08T09:30:17.823Z,95.56
2022-11-08T09:31:17.846Z,95.81
2022-11-08T09:32:24.763Z,96.42
2022-11-08T09:33:19.094Z,96.38
2022-11-08T09:34:20.723Z,96.79
2022-11-08T09:35:17.750Z,96.48
2022-11-08T09:36:17.720Z,96.48
2022-11-08T09:37:17.750Z,95.32
2022-11-08T09:38:18.147Z,93.18
2022-11-08T09:39:17.720Z,93.48
2022-11-08T09:40:17.714Z,96.42
2022-11-08T09:41:17.728Z,92.41
2022-11-08T09:42:17.662Z,89.06
2022-11-08T09:43:17.942Z,86.49
2022-11-08T09:44:17.638Z,85.47
2022-11-08T09:45:17.764Z,85.61
2022-11-08T09:46:17.615Z,84.21
2022-11-08T09:47:17.637Z,82.92
2022-11-08T09:48:17.610Z,82.06
2022-11-08T09:49:17.573Z,82.03
2022-11-08T09:50:17.562Z,82.15
2022-11-08T09:51:17.624Z,79.54
2022-11-08T09:52:17.552Z,77.58
2022-11-08T09:53:17.986Z,78.97
2022-11-08T09:54:19.516Z,79.88
2022-11-08T09:55:17.547Z,78.80
2022-11-08T09:56:17.548Z,78.66
2022-11-08T09:57:17.509Z,77.75
2022-11-08T09:58:17.519Z,75.34
2022-11-08T09:59:17.512Z,74.57
2022-11-08T10:00:17.739Z,75.24
2022-11-08T10:01:17.578Z,72.58
2022-11-08T10:02:17.562Z,75.89
2022-11-08T10:03:17.695Z,78.03
2022-11-08T10:04:17.422Z,78.64
2022-11-08T10:05:17.429Z,80.46
2022-11-08T10:06:17.436Z,80.10
2022-11-08T10:07:17.600Z,82.03
2022-11-08T10:08:17.386Z,82.12
2022-11-08T10:09:17.422Z,79.12
2022-11-08T10:10:17.359Z,79.32
2022-11-08T10:11:17.450Z,81.76
2022-11-08T10:12:17.346Z,80.94
2022-11-08T10:13:17.680Z,82.17
2022-11-08T10:14:17.314Z,82.26
2022-11-08T10:15:17.328Z,80.78
2022-11-08T10:16:17.368Z,83.59
2022-11-08T10:17:17.296Z,82.10
2022-11-08T10:18:17.256Z,82.06
2022-11-08T10:19:17.258Z,81.35
2022-11-08T10:20:17.230Z,80.71
2022-11-08T10:21:17.240Z,80.40
2022-11-08T10:22:17.213Z,80.40
2022-11-08T10:23:17.694Z,79.75
2022-11-08T10:24:17.189Z,79.47
2022-11-08T10:25:17.257Z,79.13
2022-11-08T10:26:18.051Z,75.17
2022-11-08T10:27:17.168Z,74.93
2022-11-08T10:28:17.172Z,73.96
2022-11-08T10:29:17.164Z,75.20
2022-11-08T10:30:17.149Z,73.01
2022-11-08T10:31:17.195Z,69.96
2022-11-08T10:32:17.121Z,70.15
2022-11-08T10:33:17.586Z,71.97
2022-11-08T10:34:17.088Z,72.27
2022-11-08T10:35:17.079Z,71.73
2022-11-08T10:36:17.095Z,71.77
2022-11-08T10:37:17.055Z,71.06
2022-11-08T10:38:17.078Z,72.44
2022-11-08T10:39:17.118Z,72.91
2022-11-08T10:40:17.079Z,74.21
2022-11-08T10:41:17.099Z,68.22
2022-11-08T10:42:16.996Z,64.72
2022-11-08T10:43:16.990Z,63.45
2022-11-08T10:44:17.023Z,63.69
2022-11-08T10:45:17.100Z,63.56
2022-11-08T10:46:17.003Z,61.46
2022-11-08T10:47:16.974Z,61.09
2022-11-08T10:48:17.420Z,61.29
2022-11-08T10:49:16.972Z,60.85
2022-11-08T10:50:16.957Z,60.84
2022-11-08T10:51:16.921Z,65.34
2022-11-08T10:52:16.920Z,64.20
2022-11-08T10:53:17.376Z,65.97
2022-11-08T10:54:16.876Z,66.74
2022-11-08T10:55:16.900Z,72.71
2022-11-08T10:56:16.873Z,69.05
2022-11-08T10:57:16.976Z,70.83
2022-11-08T10:58:17.138Z,75.30
2022-11-08T10:59:16.830Z,70.53
2022-11-08T11:00:16.857Z,72.38
2022-11-08T11:01:16.926Z,71.57
2022-11-08T11:02:16.831Z,73.01
2022-11-08T11:03:16.848Z,73.22
2022-11-08T11:04:16.822Z,71.10
2022-11-08T11:05:16.800Z,72.24
2022-11-08T11:06:16.823Z,73.25
2022-11-08T11:07:16.789Z,70.53
2022-11-08T11:08:17.118Z,75.67
2022-11-08T11:09:16.787Z,74.05
2022-11-08T11:10:16.773Z,71.44
2022-11-08T11:11:16.760Z,73.11
2022-11-08T11:12:16.727Z,71.23
2022-11-08T11:13:16.783Z,69.72
2022-11-08T11:14:21.842Z,74.93
2022-11-08T11:15:17.638Z,76.54
2022-11-08T11:16:16.773Z,77.86
2022-11-08T11:17:16.682Z,74.83
2022-11-08T11:18:16.993Z,73.82
2022-11-08T11:19:16.655Z,69.28
2022-11-08T11:20:16.643Z,75.94
2022-11-08T11:21:16.647Z,74.19
2022-11-08T11:22:16.625Z,70.66
2022-11-08T11:23:16.565Z,69.25
2022-11-08T11:24:19.239Z,72.07
2022-11-08T11:25:16.550Z,73.25
2022-11-08T11:26:16.653Z,75.93
2022-11-08T11:27:16.512Z,77.04
2022-11-08T11:28:16.937Z,74.79
2022-11-08T11:29:16.518Z,68.15
2022-11-08T11:30:16.558Z,66.50
2022-11-08T11:31:16.573Z,68.91
2022-11-08T11:32:16.497Z,68.11
2022-11-08T11:33:16.517Z,68.21
2022-11-08T11:34:16.441Z,67.51
2022-11-08T11:35:16.500Z,69.72
2022-11-08T11:36:16.413Z,66.57
2022-11-08T11:37:16.436Z,68.35
2022-11-08T11:38:16.757Z,65.53
2022-11-08T11:39:16.537Z,65.94
2022-11-08T11:40:16.480Z,65.70
2022-11-08T11:41:16.436Z,63.73
2022-11-08T11:42:43.715Z,63.20
2022-11-08T11:43:17.338Z,57.96
2022-11-08T11:44:16.330Z,59.06
2022-11-08T11:45:16.388Z,59.18
2022-11-08T11:46:16.320Z,57.72
2022-11-08T11:47:16.336Z,58.56
2022-11-08T11:48:16.688Z,55.94
2022-11-08T11:49:16.332Z,54.11
2022-11-08T11:50:16.302Z,54.24
2022-11-08T11:51:16.319Z,56.91
2022-11-08T11:52:16.248Z,55.29
2022-11-08T11:53:16.234Z,55.21
2022-11-08T11:54:16.224Z,53.92
2022-11-08T11:55:16.254Z,55.14
2022-11-08T11:56:16.193Z,55.09
2022-11-08T11:57:16.272Z,55.40
2022-11-08T11:58:16.459Z,55.19
2022-11-08T11:59:16.246Z,55.19
2022-11-08T12:00:16.222Z,54.86
2022-11-08T12:01:16.163Z,55.57
2022-11-08T12:02:16.229Z,53.97
2022-11-08T12:03:16.479Z,53.99
2022-11-08T12:04:16.172Z,56.32
2022-11-08T12:05:16.162Z,54.27
2022-11-08T12:06:16.191Z,55.37
2022-11-08T12:07:16.343Z,55.60
2022-11-08T12:08:16.460Z,57.46
2022-11-08T12:09:16.057Z,57.35
2022-11-08T12:10:16.098Z,57.48
2022-11-08T12:11:16.098Z,56.38
2022-11-08T12:12:16.063Z,58.81
2022-11-08T12:13:16.053Z,57.89
2022-11-08T12:14:16.046Z,57.81
2022-11-08T12:15:16.024Z,58.89
2022-11-08T12:16:16.022Z,57.46
2022-11-08T12:17:16.006Z,59.66
2022-11-08T12:18:36.566Z,57.96
2022-11-08T12:19:16.982Z,57.26
2022-11-08T12:20:16.084Z,58.83
2022-11-08T12:21:15.953Z,61.51
2022-11-08T12:22:15.972Z,59.28
2022-11-08T12:23:15.958Z,56.27
2022-11-08T12:24:16.001Z,57.20
2022-11-08T12:25:15.971Z,58.81
2022-11-08T12:26:15.898Z,58.11
2022-11-08T12:27:15.891Z,57.40
2022-11-08T12:28:16.167Z,59.70
2022-11-08T12:29:15.849Z,60.81
2022-11-08T12:30:15.881Z,62.61
2022-11-08T12:31:15.812Z,57.90
2022-11-08T12:32:15.860Z,57.78
2022-11-08T12:33:15.982Z,60.35
2022-11-08T12:34:15.824Z,57.52
2022-11-08T12:35:15.842Z,57.09
2022-11-08T12:36:15.771Z,58.67
2022-11-08T12:37:15.769Z,59.06
2022-11-08T12:38:16.191Z,55.44
2022-11-08T12:39:20.570Z,58.41
2022-11-08T12:40:16.824Z,57.48
2022-11-08T12:41:15.726Z,52.49
2022-11-08T12:42:15.812Z,55.19
2022-11-08T12:43:15.711Z,55.49
2022-11-08T12:44:15.714Z,55.76
2022-11-08T12:45:15.697Z,56.23
2022-11-08T12:46:15.654Z,56.10
2022-11-08T12:47:15.651Z,54.83
2022-11-08T12:48:16.030Z,55.06
2022-11-08T12:49:15.677Z,55.06
2022-11-08T12:50:15.735Z,54.27
2022-11-08T12:51:15.621Z,53.99
2022-11-08T12:52:15.592Z,55.32
2022-11-08T12:53:15.717Z,54.24
2022-11-08T12:54:15.573Z,55.04
2022-11-08T12:55:15.642Z,56.24